sensor_id;sensor_type;location;lat;lon;timestamp;P1;durP1;ratioP1;P2;durP2;ratioP2
72904;SDS011;61048;52.162;4.516;2023-03-01T00:00:53;2.10;;;1.10;;
72904;SDS011;61048;52.162;4.516;2023-03-01T00:05:52;2.08;;;0.80;;
72904;SDS011;61048;52.162;4.516;2023-03-01T00:08:19;2.60;;;0.98;;
72904;SDS011;61048;52.162;4.516;2023-03-01T00:10:46;2.63;;;1.10;;
72904;SDS011;61048;52.162;4.516;2023-03-01T00:13:13;2.15;;;1.08;;
72904;SDS011;61048;52.162;4.516;2023-03-01T00:15:41;2.35;;;1.00;;
72904;SDS011;61048;52.162;4.516;2023-03-01T00:18:08;2.72;;;1.42;;
72904;SDS011;61048;52.162;4.516;2023-03-01T00:20:35;2.33;;;1.00;;
72904;SDS011;61048;52.162;4.516;2023-03-01T00:23:02;3.38;;;0.90;;
72904;SDS011;61048;52.162;4.516;2023-03-01T00:25:29;3.00;;;1.10;;
72904;SDS011;61048;52.162;4.516;2023-03-01T00:27:56;2.22;;;0.90;;
72904;SDS011;61048;52.162;4.516;2023-03-01T00:30:22;2.65;;;1.10;;
72904;SDS011;61048;52.162;4.516;2023-03-01T00:32:51;2.20;;;0.90;;
72904;SDS011;61048;52.162;4.516;2023-03-01T00:35:17;1.83;;;0.70;;
72904;SDS011;61048;52.162;4.516;2023-03-01T00:37:44;2.25;;;0.93;;
72904;SDS011;61048;52.162;4.516;2023-03-01T00:40:12;3.28;;;1.08;;
72904;SDS011;61048;52.162;4.516;2023-03-01T00:42:41;2.38;;;1.10;;
72904;SDS011;61048;52.162;4.516;2023-03-01T00:45:08;1.90;;;0.70;;
72904;SDS011;61048;52.162;4.516;2023-03-01T00:47:35;2.88;;;1.10;;
72904;SDS011;61048;52.162;4.516;2023-03-01T00:50:04;2.30;;;1.00;;
72904;SDS011;61048;52.162;4.516;2023-03-01T00:52:32;2.28;;;0.88;;
72904;SDS011;61048;52.162;4.516;2023-03-01T00:54:58;2.60;;;1.10;;
72904;SDS011;61048;52.162;4.516;2023-03-01T00:57:25;3.45;;;1.20;;
72904;SDS011;61048;52.162;4.516;2023-03-01T00:59:52;2.80;;;0.98;;
72904;SDS011;61048;52.162;4.516;2023-03-01T01:02:19;2.95;;;0.90;;
72904;SDS011;61048;52.162;4.516;2023-03-01T01:04:46;2.15;;;0.85;;
72904;SDS011;61048;52.162;4.516;2023-03-01T01:07:15;2.15;;;0.93;;
72904;SDS011;61048;52.162;4.516;2023-03-01T01:09:42;1.83;;;0.80;;
72904;SDS011;61048;52.162;4.516;2023-03-01T01:12:09;3.00;;;1.10;;
72904;SDS011;61048;52.162;4.516;2023-03-01T01:14:36;3.92;;;1.25;;
72904;SDS011;61048;52.162;4.516;2023-03-01T01:17:03;2.08;;;1.00;;
72904;SDS011;61048;52.162;4.516;2023-03-01T01:19:30;2.72;;;1.17;;
72904;SDS011;61048;52.162;4.516;2023-03-01T01:21:57;2.50;;;1.25;;
72904;SDS011;61048;52.162;4.516;2023-03-01T01:24:25;2.47;;;1.10;;
72904;SDS011;61048;52.162;4.516;2023-03-01T01:26:52;1.73;;;0.88;;
72904;SDS011;61048;52.162;4.516;2023-03-01T01:29:19;2.42;;;1.08;;
72904;SDS011;61048;52.162;4.516;2023-03-01T01:31:46;3.83;;;1.17;;
72904;SDS011;61048;52.162;4.516;2023-03-01T01:34:13;2.28;;;1.05;;
72904;SDS011;61048;52.162;4.516;2023-03-01T01:36:41;3.25;;;1.00;;
72904;SDS011;61048;52.162;4.516;2023-03-01T01:39:09;2.78;;;0.90;;
72904;SDS011;61048;52.162;4.516;2023-03-01T01:41:39;2.58;;;1.17;;
72904;SDS011;61048;52.162;4.516;2023-03-01T01:44:12;2.33;;;0.95;;
72904;SDS011;61048;52.162;4.516;2023-03-01T01:46:41;2.00;;;1.00;;
72904;SDS011;61048;52.162;4.516;2023-03-01T01:49:14;2.88;;;1.30;;
72904;SDS011;61048;52.162;4.516;2023-03-01T01:51:48;2.65;;;1.17;;
72904;SDS011;61048;52.162;4.516;2023-03-01T01:54:21;3.42;;;1.92;;
72904;SDS011;61048;52.162;4.516;2023-03-01T01:56:54;2.30;;;1.00;;
72904;SDS011;61048;52.162;4.516;2023-03-01T01:59:23;2.55;;;1.20;;
72904;SDS011;61048;52.162;4.516;2023-03-01T02:01:51;2.72;;;1.88;;
72904;SDS011;61048;52.162;4.516;2023-03-01T02:04:19;2.42;;;1.20;;
72904;SDS011;61048;52.162;4.516;2023-03-01T02:06:48;1.95;;;1.08;;
72904;SDS011;61048;52.162;4.516;2023-03-01T02:09:20;1.90;;;0.90;;
72904;SDS011;61048;52.162;4.516;2023-03-01T02:11:49;2.58;;;1.13;;
72904;SDS011;61048;52.162;4.516;2023-03-01T02:14:18;2.03;;;0.80;;
72904;SDS011;61048;52.162;4.516;2023-03-01T02:16:45;2.90;;;0.80;;
72904;SDS011;61048;52.162;4.516;2023-03-01T02:19:15;2.55;;;1.20;;
72904;SDS011;61048;52.162;4.516;2023-03-01T02:21:49;2.42;;;0.85;;
72904;SDS011;61048;52.162;4.516;2023-03-01T02:24:26;3.33;;;1.17;;
72904;SDS011;61048;52.162;4.516;2023-03-01T02:26:59;2.38;;;1.10;;
72904;SDS011;61048;52.162;4.516;2023-03-01T02:29:28;2.40;;;1.27;;
72904;SDS011;61048;52.162;4.516;2023-03-01T02:31:56;2.03;;;1.10;;
72904;SDS011;61048;52.162;4.516;2023-03-01T02:34:26;2.33;;;1.08;;
72904;SDS011;61048;52.162;4.516;2023-03-01T02:36:54;2.60;;;1.90;;
72904;SDS011;61048;52.162;4.516;2023-03-01T02:39:27;2.38;;;1.10;;
72904;SDS011;61048;52.162;4.516;2023-03-01T02:41:57;2.03;;;1.10;;
72904;SDS011;61048;52.162;4.516;2023-03-01T02:44:25;2.00;;;0.90;;
72904;SDS011;61048;52.162;4.516;2023-03-01T02:46:54;2.40;;;1.02;;
72904;SDS011;61048;52.162;4.516;2023-03-01T02:49:24;2.90;;;1.30;;
72904;SDS011;61048;52.162;4.516;2023-03-01T02:54:48;1.90;;;0.95;;
72904;SDS011;61048;52.162;4.516;2023-03-01T02:57:19;2.20;;;1.00;;
72904;SDS011;61048;52.162;4.516;2023-03-01T02:59:47;2.88;;;1.30;;
72904;SDS011;61048;52.162;4.516;2023-03-01T03:02:20;2.15;;;1.20;;
72904;SDS011;61048;52.162;4.516;2023-03-01T03:05:01;2.85;;;1.98;;
72904;SDS011;61048;52.162;4.516;2023-03-01T03:07:31;2.00;;;1.23;;
72904;SDS011;61048;52.162;4.516;2023-03-01T03:09:59;3.08;;;1.08;;
72904;SDS011;61048;52.162;4.516;2023-03-01T03:12:26;2.22;;;1.20;;
72904;SDS011;61048;52.162;4.516;2023-03-01T03:14:52;2.17;;;1.00;;
72904;SDS011;61048;52.162;4.516;2023-03-01T03:17:21;3.67;;;1.00;;
72904;SDS011;61048;52.162;4.516;2023-03-01T03:19:48;1.90;;;0.80;;
72904;SDS011;61048;52.162;4.516;2023-03-01T03:22:15;2.70;;;1.05;;
72904;SDS011;61048;52.162;4.516;2023-03-01T03:24:42;2.13;;;1.20;;
72904;SDS011;61048;52.162;4.516;2023-03-01T03:27:08;2.75;;;1.13;;
72904;SDS011;61048;52.162;4.516;2023-03-01T03:29:35;2.53;;;1.20;;
72904;SDS011;61048;52.162;4.516;2023-03-01T03:32:02;3.28;;;1.30;;
72904;SDS011;61048;52.162;4.516;2023-03-01T03:34:31;3.05;;;1.20;;
72904;SDS011;61048;52.162;4.516;2023-03-01T03:36:58;2.65;;;1.20;;
72904;SDS011;61048;52.162;4.516;2023-03-01T03:39:25;3.08;;;2.05;;
72904;SDS011;61048;52.162;4.516;2023-03-01T03:42:00;2.47;;;1.33;;
72904;SDS011;61048;52.162;4.516;2023-03-01T03:44:27;2.90;;;1.23;;
72904;SDS011;61048;52.162;4.516;2023-03-01T03:46:54;2.28;;;0.93;;
72904;SDS011;61048;52.162;4.516;2023-03-01T03:49:21;2.55;;;1.30;;
72904;SDS011;61048;52.162;4.516;2023-03-01T03:51:49;2.47;;;0.98;;
72904;SDS011;61048;52.162;4.516;2023-03-01T03:54:16;2.90;;;1.30;;
72904;SDS011;61048;52.162;4.516;2023-03-01T03:56:43;2.53;;;1.20;;
72904;SDS011;61048;52.162;4.516;2023-03-01T03:59:10;3.03;;;1.10;;
72904;SDS011;61048;52.162;4.516;2023-03-01T04:01:37;3.03;;;1.27;;
72904;SDS011;61048;52.162;4.516;2023-03-01T04:04:04;2.80;;;1.10;;
72904;SDS011;61048;52.162;4.516;2023-03-01T04:06:32;2.95;;;1.58;;
72904;SDS011;61048;52.162;4.516;2023-03-01T04:09:01;2.90;;;1.27;;
72904;SDS011;61048;52.162;4.516;2023-03-01T04:11:28;3.50;;;1.73;;
72904;SDS011;61048;52.162;4.516;2023-03-01T04:13:55;3.10;;;1.67;;
72904;SDS011;61048;52.162;4.516;2023-03-01T04:16:25;2.97;;;2.20;;
72904;SDS011;61048;52.162;4.516;2023-03-01T04:18:52;2.65;;;1.13;;
72904;SDS011;61048;52.162;4.516;2023-03-01T04:21:19;2.83;;;1.42;;
72904;SDS011;61048;52.162;4.516;2023-03-01T04:23:47;3.15;;;1.55;;
72904;SDS011;61048;52.162;4.516;2023-03-01T04:26:18;2.83;;;1.10;;
72904;SDS011;61048;52.162;4.516;2023-03-01T04:28:46;2.80;;;0.95;;
72904;SDS011;61048;52.162;4.516;2023-03-01T04:31:15;2.85;;;2.20;;
72904;SDS011;61048;52.162;4.516;2023-03-01T04:33:46;3.90;;;1.50;;
72904;SDS011;61048;52.162;4.516;2023-03-01T04:36:16;3.47;;;2.22;;
72904;SDS011;61048;52.162;4.516;2023-03-01T04:38:44;2.80;;;1.30;;
72904;SDS011;61048;52.162;4.516;2023-03-01T04:41:13;2.88;;;1.00;;
72904;SDS011;61048;52.162;4.516;2023-03-01T04:43:42;4.28;;;1.35;;
72904;SDS011;61048;52.162;4.516;2023-03-01T04:46:10;2.70;;;1.50;;
72904;SDS011;61048;52.162;4.516;2023-03-01T04:48:39;2.45;;;1.27;;
72904;SDS011;61048;52.162;4.516;2023-03-01T04:51:07;2.83;;;1.90;;
72904;SDS011;61048;52.162;4.516;2023-03-01T04:53:34;3.15;;;1.60;;
72904;SDS011;61048;52.162;4.516;2023-03-01T04:56:03;3.00;;;1.63;;
72904;SDS011;61048;52.162;4.516;2023-03-01T04:58:31;3.30;;;2.28;;
72904;SDS011;61048;52.162;4.516;2023-03-01T05:00:59;2.83;;;1.20;;
72904;SDS011;61048;52.162;4.516;2023-03-01T05:03:26;3.15;;;1.30;;
72904;SDS011;61048;52.162;4.516;2023-03-01T05:05:53;2.67;;;1.77;;
72904;SDS011;61048;52.162;4.516;2023-03-01T05:08:24;2.45;;;1.20;;
72904;SDS011;61048;52.162;4.516;2023-03-01T05:10:52;2.33;;;1.13;;
72904;SDS011;61048;52.162;4.516;2023-03-01T05:13:20;2.70;;;1.40;;
72904;SDS011;61048;52.162;4.516;2023-03-01T05:15:47;2.33;;;1.00;;
72904;SDS011;61048;52.162;4.516;2023-03-01T05:18:16;2.58;;;1.35;;
72904;SDS011;61048;52.162;4.516;2023-03-01T05:20:43;2.13;;;1.13;;
72904;SDS011;61048;52.162;4.516;2023-03-01T05:23:11;4.82;;;1.45;;
72904;SDS011;61048;52.162;4.516;2023-03-01T05:25:38;2.72;;;1.30;;
72904;SDS011;61048;52.162;4.516;2023-03-01T05:28:06;3.55;;;1.23;;
72904;SDS011;61048;52.162;4.516;2023-03-01T05:30:36;2.92;;;1.20;;
72904;SDS011;61048;52.162;4.516;2023-03-01T05:33:04;2.53;;;1.08;;
72904;SDS011;61048;52.162;4.516;2023-03-01T05:35:39;3.13;;;2.33;;
72904;SDS011;61048;52.162;4.516;2023-03-01T05:38:07;2.72;;;1.20;;
72904;SDS011;61048;52.162;4.516;2023-03-01T05:40:34;2.42;;;1.25;;
72904;SDS011;61048;52.162;4.516;2023-03-01T05:43:01;2.30;;;1.10;;
72904;SDS011;61048;52.162;4.516;2023-03-01T05:45:30;2.20;;;1.10;;
72904;SDS011;61048;52.162;4.516;2023-03-01T05:47:58;2.10;;;0.85;;
72904;SDS011;61048;52.162;4.516;2023-03-01T05:50:26;2.33;;;1.10;;
72904;SDS011;61048;52.162;4.516;2023-03-01T05:52:58;2.45;;;1.00;;
72904;SDS011;61048;52.162;4.516;2023-03-01T05:55:26;2.47;;;1.05;;
72904;SDS011;61048;52.162;4.516;2023-03-01T05:57:53;2.13;;;1.05;;
72904;SDS011;61048;52.162;4.516;2023-03-01T06:00:20;2.90;;;1.65;;
72904;SDS011;61048;52.162;4.516;2023-03-01T06:02:48;3.05;;;1.13;;
72904;SDS011;61048;52.162;4.516;2023-03-01T06:05:16;2.28;;;1.17;;
72904;SDS011;61048;52.162;4.516;2023-03-01T06:07:43;2.35;;;1.27;;
72904;SDS011;61048;52.162;4.516;2023-03-01T06:10:12;2.05;;;0.98;;
72904;SDS011;61048;52.162;4.516;2023-03-01T06:12:40;2.92;;;1.70;;
72904;SDS011;61048;52.162;4.516;2023-03-01T06:15:09;2.78;;;2.28;;
72904;SDS011;61048;52.162;4.516;2023-03-01T06:17:38;2.78;;;1.17;;
72904;SDS011;61048;52.162;4.516;2023-03-01T06:20:07;2.63;;;1.33;;
72904;SDS011;61048;52.162;4.516;2023-03-01T06:22:35;2.28;;;0.90;;
72904;SDS011;61048;52.162;4.516;2023-03-01T06:25:02;2.67;;;2.13;;
72904;SDS011;61048;52.162;4.516;2023-03-01T06:27:31;2.70;;;1.20;;
72904;SDS011;61048;52.162;4.516;2023-03-01T06:29:58;2.42;;;1.20;;
72904;SDS011;61048;52.162;4.516;2023-03-01T06:32:25;1.92;;;1.08;;
72904;SDS011;61048;52.162;4.516;2023-03-01T06:34:52;1.95;;;1.20;;
72904;SDS011;61048;52.162;4.516;2023-03-01T06:37:19;2.08;;;1.00;;
72904;SDS011;61048;52.162;4.516;2023-03-01T06:39:46;2.08;;;1.05;;
72904;SDS011;61048;52.162;4.516;2023-03-01T06:42:13;1.63;;;0.82;;
72904;SDS011;61048;52.162;4.516;2023-03-01T06:44:41;2.38;;;1.15;;
72904;SDS011;61048;52.162;4.516;2023-03-01T06:47:10;2.15;;;0.93;;
72904;SDS011;61048;52.162;4.516;2023-03-01T06:49:37;2.10;;;1.08;;
72904;SDS011;61048;52.162;4.516;2023-03-01T06:52:04;2.25;;;0.95;;
72904;SDS011;61048;52.162;4.516;2023-03-01T06:54:31;1.98;;;1.52;;
72904;SDS011;61048;52.162;4.516;2023-03-01T06:56:58;2.10;;;1.58;;
72904;SDS011;61048;52.162;4.516;2023-03-01T06:59:25;2.42;;;1.30;;
72904;SDS011;61048;52.162;4.516;2023-03-01T07:01:53;1.80;;;0.90;;
72904;SDS011;61048;52.162;4.516;2023-03-01T07:04:20;2.55;;;1.15;;
72904;SDS011;61048;52.162;4.516;2023-03-01T07:06:47;2.03;;;1.25;;
72904;SDS011;61048;52.162;4.516;2023-03-01T07:09:20;2.33;;;1.20;;
72904;SDS011;61048;52.162;4.516;2023-03-01T07:11:47;2.40;;;1.13;;
72904;SDS011;61048;52.162;4.516;2023-03-01T07:14:14;2.42;;;1.15;;
72904;SDS011;61048;52.162;4.516;2023-03-01T07:16:41;2.60;;;2.03;;
72904;SDS011;61048;52.162;4.516;2023-03-01T07:19:09;2.40;;;1.13;;
72904;SDS011;61048;52.162;4.516;2023-03-01T07:21:36;2.38;;;0.98;;
72904;SDS011;61048;52.162;4.516;2023-03-01T07:24:04;1.90;;;0.80;;
72904;SDS011;61048;52.162;4.516;2023-03-01T07:26:32;2.35;;;1.00;;
72904;SDS011;61048;52.162;4.516;2023-03-01T07:28:59;2.38;;;0.90;;
72904;SDS011;61048;52.162;4.516;2023-03-01T07:31:26;2.35;;;1.15;;
72904;SDS011;61048;52.162;4.516;2023-03-01T07:33:53;2.45;;;1.50;;
72904;SDS011;61048;52.162;4.516;2023-03-01T07:36:22;2.30;;;0.95;;
72904;SDS011;61048;52.162;4.516;2023-03-01T07:38:49;2.50;;;1.20;;
72904;SDS011;61048;52.162;4.516;2023-03-01T07:41:16;2.17;;;1.00;;
72904;SDS011;61048;52.162;4.516;2023-03-01T07:43:43;1.92;;;0.90;;
72904;SDS011;61048;52.162;4.516;2023-03-01T07:46:10;2.55;;;1.00;;
72904;SDS011;61048;52.162;4.516;2023-03-01T07:48:37;2.20;;;0.98;;
72904;SDS011;61048;52.162;4.516;2023-03-01T07:51:05;2.03;;;0.95;;
72904;SDS011;61048;52.162;4.516;2023-03-01T07:53:34;3.08;;;2.25;;
72904;SDS011;61048;52.162;4.516;2023-03-01T07:56:02;2.30;;;1.13;;
72904;SDS011;61048;52.162;4.516;2023-03-01T07:58:30;2.20;;;1.50;;
72904;SDS011;61048;52.162;4.516;2023-03-01T08:01:00;1.83;;;1.27;;
72904;SDS011;61048;52.162;4.516;2023-03-01T08:03:28;1.90;;;0.77;;
72904;SDS011;61048;52.162;4.516;2023-03-01T08:05:55;2.83;;;1.33;;
72904;SDS011;61048;52.162;4.516;2023-03-01T08:08:22;2.75;;;0.98;;
72904;SDS011;61048;52.162;4.516;2023-03-01T08:10:51;3.13;;;0.98;;
72904;SDS011;61048;52.162;4.516;2023-03-01T08:13:17;3.05;;;1.20;;
72904;SDS011;61048;52.162;4.516;2023-03-01T08:15:47;2.90;;;2.38;;
72904;SDS011;61048;52.162;4.516;2023-03-01T08:18:14;2.50;;;1.10;;
72904;SDS011;61048;52.162;4.516;2023-03-01T08:20:41;3.08;;;1.05;;
72904;SDS011;61048;52.162;4.516;2023-03-01T08:23:08;2.50;;;1.70;;
72904;SDS011;61048;52.162;4.516;2023-03-01T08:25:35;2.90;;;1.10;;
72904;SDS011;61048;52.162;4.516;2023-03-01T08:28:03;2.38;;;1.20;;
72904;SDS011;61048;52.162;4.516;2023-03-01T08:30:31;2.30;;;1.10;;
72904;SDS011;61048;52.162;4.516;2023-03-01T08:32:58;3.78;;;1.30;;
72904;SDS011;61048;52.162;4.516;2023-03-01T08:35:25;2.83;;;2.03;;
72904;SDS011;61048;52.162;4.516;2023-03-01T08:37:52;2.83;;;1.35;;
72904;SDS011;61048;52.162;4.516;2023-03-01T08:40:19;2.67;;;1.30;;
72904;SDS011;61048;52.162;4.516;2023-03-01T08:42:46;3.65;;;1.63;;
72904;SDS011;61048;52.162;4.516;2023-03-01T08:45:14;3.33;;;1.30;;
72904;SDS011;61048;52.162;4.516;2023-03-01T08:47:43;3.13;;;2.78;;
72904;SDS011;61048;52.162;4.516;2023-03-01T08:50:10;2.70;;;1.35;;
72904;SDS011;61048;52.162;4.516;2023-03-01T08:52:37;2.60;;;1.40;;
72904;SDS011;61048;52.162;4.516;2023-03-01T08:55:05;2.50;;;1.10;;
72904;SDS011;61048;52.162;4.516;2023-03-01T08:57:32;3.40;;;2.05;;
72904;SDS011;61048;52.162;4.516;2023-03-01T08:59:59;3.13;;;1.52;;
72904;SDS011;61048;52.162;4.516;2023-03-01T09:02:27;3.38;;;1.67;;
72904;SDS011;61048;52.162;4.516;2023-03-01T09:04:54;2.97;;;1.60;;
72904;SDS011;61048;52.162;4.516;2023-03-01T09:07:21;3.67;;;1.60;;
72904;SDS011;61048;52.162;4.516;2023-03-01T09:09:53;2.95;;;2.40;;
72904;SDS011;61048;52.162;4.516;2023-03-01T09:12:20;4.72;;;2.15;;
72904;SDS011;61048;52.162;4.516;2023-03-01T09:14:47;3.05;;;1.42;;
72904;SDS011;61048;52.162;4.516;2023-03-01T09:17:14;2.95;;;1.25;;
72904;SDS011;61048;52.162;4.516;2023-03-01T09:19:42;2.65;;;1.10;;
72904;SDS011;61048;52.162;4.516;2023-03-01T09:22:09;3.63;;;1.60;;
72904;SDS011;61048;52.162;4.516;2023-03-01T09:24:36;3.00;;;1.48;;
72904;SDS011;61048;52.162;4.516;2023-03-01T09:27:04;3.60;;;1.55;;
72904;SDS011;61048;52.162;4.516;2023-03-01T09:29:33;3.92;;;1.67;;
72904;SDS011;61048;52.162;4.516;2023-03-01T09:32:01;3.40;;;1.98;;
72904;SDS011;61048;52.162;4.516;2023-03-01T09:34:28;3.60;;;1.98;;
72904;SDS011;61048;52.162;4.516;2023-03-01T09:36:58;3.00;;;1.88;;
72904;SDS011;61048;52.162;4.516;2023-03-01T09:39:25;3.22;;;2.13;;
72904;SDS011;61048;52.162;4.516;2023-03-01T09:41:54;4.50;;;2.15;;
72904;SDS011;61048;52.162;4.516;2023-03-01T09:44:29;3.45;;;2.03;;
72904;SDS011;61048;52.162;4.516;2023-03-01T09:47:01;3.17;;;1.85;;
72904;SDS011;61048;52.162;4.516;2023-03-01T09:49:29;4.38;;;3.08;;
72904;SDS011;61048;52.162;4.516;2023-03-01T09:52:02;3.47;;;1.98;;
72904;SDS011;61048;52.162;4.516;2023-03-01T09:54:47;4.78;;;1.88;;
72904;SDS011;61048;52.162;4.516;2023-03-01T09:57:20;3.25;;;1.70;;
72904;SDS011;61048;52.162;4.516;2023-03-01T09:59:57;3.35;;;1.95;;
72904;SDS011;61048;52.162;4.516;2023-03-01T10:02:39;3.17;;;1.77;;
72904;SDS011;61048;52.162;4.516;2023-03-01T10:07:47;2.95;;;1.65;;
72904;SDS011;61048;52.162;4.516;2023-03-01T10:10:24;3.03;;;1.42;;
72904;SDS011;61048;52.162;4.516;2023-03-01T10:12:57;3.03;;;1.65;;
72904;SDS011;61048;52.162;4.516;2023-03-01T10:15:30;3.00;;;1.60;;
72904;SDS011;61048;52.162;4.516;2023-03-01T10:18:02;3.10;;;1.48;;
72904;SDS011;61048;52.162;4.516;2023-03-01T10:20:38;2.75;;;1.52;;
72904;SDS011;61048;52.162;4.516;2023-03-01T10:23:12;3.58;;;1.40;;
72904;SDS011;61048;52.162;4.516;2023-03-01T10:25:43;2.83;;;1.30;;
72904;SDS011;61048;52.162;4.516;2023-03-01T10:28:24;3.15;;;1.67;;
72904;SDS011;61048;52.162;4.516;2023-03-01T10:30:54;3.40;;;1.63;;
72904;SDS011;61048;52.162;4.516;2023-03-01T10:33:22;3.97;;;1.73;;
72904;SDS011;61048;52.162;4.516;2023-03-01T10:35:51;3.15;;;1.85;;
72904;SDS011;61048;52.162;4.516;2023-03-01T10:38:20;4.20;;;1.70;;
72904;SDS011;61048;52.162;4.516;2023-03-01T10:40:51;3.13;;;1.60;;
72904;SDS011;61048;52.162;4.516;2023-03-01T10:43:20;2.90;;;1.50;;
72904;SDS011;61048;52.162;4.516;2023-03-01T10:45:47;3.55;;;1.90;;
72904;SDS011;61048;52.162;4.516;2023-03-01T10:48:15;2.95;;;1.60;;
72904;SDS011;61048;52.162;4.516;2023-03-01T10:50:44;2.95;;;1.48;;
72904;SDS011;61048;52.162;4.516;2023-03-01T10:53:21;3.28;;;2.08;;
72904;SDS011;61048;52.162;4.516;2023-03-01T10:55:58;3.83;;;2.42;;
72904;SDS011;61048;52.162;4.516;2023-03-01T10:58:28;4.72;;;2.13;;
72904;SDS011;61048;52.162;4.516;2023-03-01T11:00:56;4.28;;;2.63;;
72904;SDS011;61048;52.162;4.516;2023-03-01T11:03:26;3.70;;;1.70;;
72904;SDS011;61048;52.162;4.516;2023-03-01T11:06:01;3.65;;;1.80;;
72904;SDS011;61048;52.162;4.516;2023-03-01T11:08:37;2.60;;;1.63;;
72904;SDS011;61048;52.162;4.516;2023-03-01T11:11:10;3.95;;;2.38;;
72904;SDS011;61048;52.162;4.516;2023-03-01T11:13:58;5.13;;;4.40;;
72904;SDS011;61048;52.162;4.516;2023-03-01T11:16:31;4.03;;;2.08;;
72904;SDS011;61048;52.162;4.516;2023-03-01T11:19:03;3.90;;;2.63;;
72904;SDS011;61048;52.162;4.516;2023-03-01T11:21:41;3.85;;;2.60;;
72904;SDS011;61048;52.162;4.516;2023-03-01T11:24:16;3.17;;;1.98;;
72904;SDS011;61048;52.162;4.516;2023-03-01T11:26:44;4.15;;;1.95;;
72904;SDS011;61048;52.162;4.516;2023-03-01T11:29:17;4.15;;;1.60;;
72904;SDS011;61048;52.162;4.516;2023-03-01T11:31:53;3.83;;;2.10;;
72904;SDS011;61048;52.162;4.516;2023-03-01T11:34:23;4.82;;;2.33;;
72904;SDS011;61048;52.162;4.516;2023-03-01T11:37:01;4.13;;;2.03;;
72904;SDS011;61048;52.162;4.516;2023-03-01T11:39:38;4.15;;;1.90;;
72904;SDS011;61048;52.162;4.516;2023-03-01T11:42:11;4.40;;;2.80;;
72904;SDS011;61048;52.162;4.516;2023-03-01T11:44:41;5.22;;;2.80;;
72904;SDS011;61048;52.162;4.516;2023-03-01T11:47:14;7.78;;;2.47;;
72904;SDS011;61048;52.162;4.516;2023-03-01T11:49:56;4.80;;;2.17;;
72904;SDS011;61048;52.162;4.516;2023-03-01T11:52:37;5.57;;;2.97;;
72904;SDS011;61048;52.162;4.516;2023-03-01T11:55:21;4.53;;;2.55;;
72904;SDS011;61048;52.162;4.516;2023-03-01T11:58:03;5.80;;;2.70;;
72904;SDS011;61048;52.162;4.516;2023-03-01T12:00:52;5.28;;;3.10;;
72904;SDS011;61048;52.162;4.516;2023-03-01T12:03:43;4.65;;;3.05;;
72904;SDS011;61048;52.162;4.516;2023-03-01T12:06:33;5.30;;;2.63;;
72904;SDS011;61048;52.162;4.516;2023-03-01T12:09:30;5.72;;;2.85;;
72904;SDS011;61048;52.162;4.516;2023-03-01T12:12:09;5.20;;;2.70;;
72904;SDS011;61048;52.162;4.516;2023-03-01T12:21:02;6.55;;;3.22;;
72904;SDS011;61048;52.162;4.516;2023-03-01T12:23:54;6.22;;;3.25;;
72904;SDS011;61048;52.162;4.516;2023-03-01T12:26:44;6.97;;;3.45;;
72904;SDS011;61048;52.162;4.516;2023-03-01T12:29:23;6.60;;;3.58;;
72904;SDS011;61048;52.162;4.516;2023-03-01T12:31:59;7.72;;;3.50;;
72904;SDS011;61048;52.162;4.516;2023-03-01T12:34:57;5.70;;;2.85;;
72904;SDS011;61048;52.162;4.516;2023-03-01T12:37:47;6.65;;;3.63;;
72904;SDS011;61048;52.162;4.516;2023-03-01T12:40:31;6.25;;;3.90;;
72904;SDS011;61048;52.162;4.516;2023-03-01T12:43:16;6.35;;;3.25;;
72904;SDS011;61048;52.162;4.516;2023-03-01T12:46:03;7.15;;;3.70;;
72904;SDS011;61048;52.162;4.516;2023-03-01T12:48:48;8.68;;;3.50;;
72904;SDS011;61048;52.162;4.516;2023-03-01T12:51:23;7.53;;;3.83;;
72904;SDS011;61048;52.162;4.516;2023-03-01T12:53:53;7.43;;;3.80;;
72904;SDS011;61048;52.162;4.516;2023-03-01T12:56:23;6.57;;;3.72;;
72904;SDS011;61048;52.162;4.516;2023-03-01T12:58:55;6.35;;;4.78;;
72904;SDS011;61048;52.162;4.516;2023-03-01T13:01:41;7.45;;;3.72;;
72904;SDS011;61048;52.162;4.516;2023-03-01T13:04:17;6.65;;;4.30;;
72904;SDS011;61048;52.162;4.516;2023-03-01T13:06:55;8.00;;;3.78;;
72904;SDS011;61048;52.162;4.516;2023-03-01T13:09:33;7.13;;;4.00;;
72904;SDS011;61048;52.162;4.516;2023-03-01T13:12:04;7.45;;;3.78;;
72904;SDS011;61048;52.162;4.516;2023-03-01T13:15:24;7.40;;;4.60;;
72904;SDS011;61048;52.162;4.516;2023-03-01T13:17:54;7.10;;;3.65;;
72904;SDS011;61048;52.162;4.516;2023-03-01T13:20:24;6.45;;;3.40;;
72904;SDS011;61048;52.162;4.516;2023-03-01T13:23:00;6.03;;;3.80;;
72904;SDS011;61048;52.162;4.516;2023-03-01T13:25:33;6.68;;;3.67;;
72904;SDS011;61048;52.162;4.516;2023-03-01T13:37:30;6.90;;;3.30;;
72904;SDS011;61048;52.162;4.516;2023-03-01T13:40:00;4.97;;;2.92;;
72904;SDS011;61048;52.162;4.516;2023-03-01T13:42:41;6.47;;;3.85;;
72904;SDS011;61048;52.162;4.516;2023-03-01T13:45:16;6.82;;;4.13;;
72904;SDS011;61048;52.162;4.516;2023-03-01T13:47:55;7.32;;;3.72;;
72904;SDS011;61048;52.162;4.516;2023-03-01T13:50:28;6.35;;;3.22;;
72904;SDS011;61048;52.162;4.516;2023-03-01T13:53:00;6.22;;;3.47;;
72904;SDS011;61048;52.162;4.516;2023-03-01T13:55:34;5.38;;;3.20;;
72904;SDS011;61048;52.162;4.516;2023-03-01T13:58:04;7.68;;;4.63;;
72904;SDS011;61048;52.162;4.516;2023-03-01T14:00:45;5.35;;;2.97;;
72904;SDS011;61048;52.162;4.516;2023-03-01T14:03:13;7.72;;;4.53;;
72904;SDS011;61048;52.162;4.516;2023-03-01T14:05:50;5.95;;;3.08;;
72904;SDS011;61048;52.162;4.516;2023-03-01T14:08:26;4.93;;;3.08;;
72904;SDS011;61048;52.162;4.516;2023-03-01T14:14:08;5.75;;;2.80;;
72904;SDS011;61048;52.162;4.516;2023-03-01T14:16:45;5.22;;;2.88;;
72904;SDS011;61048;52.162;4.516;2023-03-01T14:19:21;6.10;;;4.05;;
72904;SDS011;61048;52.162;4.516;2023-03-01T14:21:59;5.40;;;3.42;;
72904;SDS011;61048;52.162;4.516;2023-03-01T14:24:32;5.10;;;3.58;;
72904;SDS011;61048;52.162;4.516;2023-03-01T14:27:04;5.50;;;2.67;;
72904;SDS011;61048;52.162;4.516;2023-03-01T14:29:36;6.68;;;3.08;;
72904;SDS011;61048;52.162;4.516;2023-03-01T14:32:09;5.63;;;2.65;;
72904;SDS011;61048;52.162;4.516;2023-03-01T14:34:38;5.75;;;2.17;;
72904;SDS011;61048;52.162;4.516;2023-03-01T14:37:11;4.50;;;2.63;;
72904;SDS011;61048;52.162;4.516;2023-03-01T14:39:44;6.18;;;2.40;;
72904;SDS011;61048;52.162;4.516;2023-03-01T14:42:11;4.18;;;1.90;;
72904;SDS011;61048;52.162;4.516;2023-03-01T14:44:40;4.32;;;2.28;;
72904;SDS011;61048;52.162;4.516;2023-03-01T14:47:10;5.07;;;2.50;;
72904;SDS011;61048;52.162;4.516;2023-03-01T14:49:40;4.78;;;2.33;;
72904;SDS011;61048;52.162;4.516;2023-03-01T14:52:16;6.10;;;3.05;;
72904;SDS011;61048;52.162;4.516;2023-03-01T14:54:47;4.65;;;2.45;;
72904;SDS011;61048;52.162;4.516;2023-03-01T14:57:16;4.97;;;2.70;;
72904;SDS011;61048;52.162;4.516;2023-03-01T14:59:44;4.32;;;3.30;;
72904;SDS011;61048;52.162;4.516;2023-03-01T15:02:13;6.22;;;4.43;;
72904;SDS011;61048;52.162;4.516;2023-03-01T15:04:45;7.28;;;2.42;;
72904;SDS011;61048;52.162;4.516;2023-03-01T15:07:14;4.63;;;2.10;;
72904;SDS011;61048;52.162;4.516;2023-03-01T15:09:43;5.22;;;2.15;;
72904;SDS011;61048;52.162;4.516;2023-03-01T15:15:02;5.18;;;3.30;;
72904;SDS011;61048;52.162;4.516;2023-03-01T15:17:59;3.80;;;2.20;;
72904;SDS011;61048;52.162;4.516;2023-03-01T15:20:29;4.40;;;1.80;;
72904;SDS011;61048;52.162;4.516;2023-03-01T15:23:00;4.55;;;2.13;;
72904;SDS011;61048;52.162;4.516;2023-03-01T15:25:30;3.72;;;2.22;;
72904;SDS011;61048;52.162;4.516;2023-03-01T15:27:59;5.35;;;2.40;;
72904;SDS011;61048;52.162;4.516;2023-03-01T15:30:28;3.78;;;2.67;;
72904;SDS011;61048;52.162;4.516;2023-03-01T15:33:19;4.15;;;2.22;;
72904;SDS011;61048;52.162;4.516;2023-03-01T15:35:54;3.83;;;2.58;;
72904;SDS011;61048;52.162;4.516;2023-03-01T15:38:28;4.60;;;2.15;;